Time;durP1;ratioP1;P1;durP2;ratioP2;P2;SDS_P1;SDS_P2;PMS_P1;PMS_P2;Temp;Humidity;BMP_temperature;BMP_pressure;BME280_temperature;BME280_humidity;BME280_pressure;Samples;Min_cycle;Max_cycle;Signal;HPM_P1;HPM_P2
2022/07/18 10:23:51;;;;;;;2.07;1.70;;;25.50;45.00;;;;;;5576926;22;20485;-85
2022/07/18 10:26:19;;;;;;;2.10;1.47;;;25.60;45.10;;;;;;5012627;28;20479;-85
2022/07/18 10:29:00;;;;;;;2.17;1.00;;;25.60;45.10;;;;;;5008541;28;20439;-85
2022/07/18 10:31:33;;;;;;;1.60;1.40;;;25.60;45.00;;;;;;5011093;28;20421;-85
2022/07/18 10:34:26;;;;;;;3.77;1.27;;;25.60;45.00;;;;;;5011741;28;20431;-85
2022/07/18 10:36:52;;;;;;;1.53;1.20;;;25.60;45.00;;;;;;5009567;28;20411;-85
2022/07/18 10:39:25;;;;;;;1.40;1.10;;;25.60;45.00;;;;;;5016006;28;20467;-84
2022/07/18 10:41:51;;;;;;;2.20;1.10;;;25.60;45.00;;;;;;5008467;28;20188;-85
2022/07/18 10:44:29;;;;;;;2.47;1.27;;;25.70;45.00;;;;;;4999061;28;20435;-85
2022/07/18 10:47:17;;;;;;;1.63;1.47;;;25.70;44.90;;;;;;5006137;28;20216;-85
2022/07/18 10:49:52;;;;;;;2.53;1.43;;;25.70;44.90;;;;;;5011222;28;20435;-85
2022/07/18 10:52:29;;;;;;;1.50;1.20;;;25.70;44.90;;;;;;4996842;28;20482;-85
2022/07/18 10:55:11;;;;;;;2.70;1.40;;;25.70;44.90;;;;;;5014186;28;20415;-85
2022/07/18 10:57:42;;;;;;;1.90;1.33;;;25.70;44.90;;;;;;5053181;28;20444;-87
2022/07/18 11:00:13;;;;;;;2.10;1.50;;;25.70;44.90;;;;;;5064028;28;20584;-84
2022/07/18 11:02:44;;;;;;;1.60;1.40;;;25.70;44.90;;;;;;5082860;28;20435;-85
2022/07/18 11:05:25;;;;;;;2.20;1.63;;;25.70;44.90;;;;;;5082605;28;20409;-87
2022/07/18 11:08:02;;;;;;;2.60;1.93;;;25.80;45.50;;;;;;5079165;28;20416;-84
2022/07/18 11:10:44;;;;;;;4.27;2.23;;;25.80;44.90;;;;;;5068916;28;20412;-84
2022/07/18 11:13:28;;;;;;;6.70;2.00;;;25.70;44.90;;;;;;5063803;28;20416;-84
2022/07/18 11:16:12;;;;;;;7.77;2.60;;;25.70;44.90;;;;;;5080849;28;20417;-84
2022/07/18 11:18:42;;;;;;;5.27;2.70;;;25.80;45.00;;;;;;5080927;28;20424;-85
2022/07/18 11:21:26;;;;;;;8.47;2.87;;;25.70;44.90;;;;;;5060477;28;20444;-83
2022/07/18 11:24:00;;;;;;;6.83;3.00;;;25.80;45.00;;;;;;5067758;28;20463;-83
2022/07/18 11:26:27;;;;;;;10.27;3.67;;;25.70;44.90;;;;;;5068776;28;20514;-84
2022/07/18 11:29:11;;;;;;;7.60;4.23;;;25.80;45.00;;;;;;5064878;28;20435;-83
2022/07/18 11:31:55;;;;;;;9.50;4.20;;;25.80;45.00;;;;;;5065749;28;20504;-83
2022/07/18 11:34:24;;;;;;;10.37;4.10;;;25.80;45.00;;;;;;5064696;28;20412;-84
2022/07/18 11:36:50;;;;;;;11.90;4.40;;;25.80;45.00;;;;;;5067808;28;20425;-83
2022/07/18 11:39:29;;;;;;;13.13;5.37;;;25.80;45.00;;;;;;5069773;28;20479;-83
2022/07/18 11:41:55;;;;;;;9.50;4.97;;;25.80;45.10;;;;;;5067745;28;20485;-84
2022/07/18 11:44:26;;;;;;;9.90;4.90;;;25.80;45.10;;;;;;5067578;28;20415;-84
2022/07/18 11:47:07;;;;;;;10.30;4.70;;;25.80;45.70;;;;;;5076188;28;20410;-84
2022/07/18 11:49:35;;;;;;;12.60;4.97;;;25.80;45.10;;;;;;5064661;28;20415;-84
2022/07/18 11:52:01;;;;;;;9.20;5.27;;;25.80;45.10;;;;;;5075589;28;20429;-84
2022/07/18 11:54:28;;;;;;;11.00;4.90;;;25.80;45.20;;;;;;5074697;28;20413;-84
2022/07/18 11:56:55;;;;;;;12.23;5.93;;;25.80;45.10;;;;;;5093294;28;20492;-84
2022/07/18 11:59:21;;;;;;;8.87;4.57;;;25.80;45.10;;;;;;5076746;28;20907;-81
2022/07/18 12:01:55;;;;;;;13.37;5.23;;;25.80;45.10;;;;;;5074101;28;20462;-80
2022/07/18 12:04:23;;;;;;;14.30;4.97;;;25.80;45.10;;;;;;5073466;28;20409;-81
2022/07/18 12:07:14;;;;;;;8.33;4.53;;;25.80;45.10;;;;;;5073885;28;20416;-80
2022/07/18 12:09:41;;;;;;;14.90;5.00;;;25.80;45.10;;;;;;5072316;28;20421;-81
2022/07/18 12:12:11;;;;;;;9.53;3.87;;;25.80;45.20;;;;;;5088140;28;20397;-82
2022/07/18 12:14:38;;;;;;;10.40;5.87;;;25.80;45.10;;;;;;5087805;28;20512;-81
2022/07/18 12:17:05;;;;;;;9.63;4.23;;;25.80;45.10;;;;;;5087964;28;20397;-81
2022/07/18 12:19:35;;;;;;;12.40;4.90;;;25.80;45.10;;;;;;5069035;28;20412;-81
2022/07/18 12:22:08;;;;;;;9.83;4.47;;;25.80;45.10;;;;;;5069571;28;20419;-82
2022/07/18 12:24:56;;;;;;;8.83;4.43;;;25.80;45.20;;;;;;5087783;28;20393;-81
2022/07/18 12:27:23;;;;;;;7.50;4.17;;;25.80;45.20;;;;;;5088378;28;20427;-82
2022/07/18 12:30:13;;;;;;;9.27;4.73;;;25.80;45.20;;;;;;5087162;28;20419;-82
2022/07/18 12:32:42;;;;;;;11.27;4.33;;;25.90;45.20;;;;;;5069138;28;20475;-81
2022/07/18 12:35:15;;;;;;;7.20;3.70;;;25.80;45.20;;;;;;5086841;28;20480;-81
2022/07/18 12:37:50;;;;;;;7.87;4.10;;;25.90;45.20;;;;;;5069526;28;20429;-81
2022/07/18 12:40:16;;;;;;;10.10;3.80;;;25.90;45.80;;;;;;5086997;28;20534;-80
2022/07/18 12:42:42;;;;;;;11.03;4.93;;;25.90;45.20;;;;;;5068613;28;20773;-82
2022/07/18 12:45:13;;;;;;;8.73;3.97;;;25.90;45.20;;;;;;5087092;28;20166;-81
2022/07/18 12:47:39;;;;;;;9.23;4.67;;;25.90;45.20;;;;;;5088292;28;20871;-82
2022/07/18 12:50:06;;;;;;;8.37;4.00;;;25.90;45.80;;;;;;5071702;28;20432;-82
2022/07/18 12:52:33;;;;;;;8.13;4.57;;;25.90;45.20;;;;;;5091011;28;20184;-82
2022/07/18 12:54:59;;;;;;;9.83;5.67;;;25.90;45.20;;;;;;5071497;28;20470;-81
2022/07/18 12:57:25;;;;;;;7.80;4.57;;;25.90;45.20;;;;;;5072615;28;20487;-81
2022/07/18 12:59:51;;;;;;;5.93;3.47;;;25.90;45.20;;;;;;5090208;28;20202;-80
2022/07/18 13:02:16;;;;;;;10.80;3.83;;;25.90;45.20;;;;;;5086728;28;20405;-81
2022/07/18 13:04:44;;;;;;;9.87;4.27;;;25.90;45.20;;;;;;5072870;28;20241;-81
2022/07/18 13:07:10;;;;;;;7.93;3.47;;;25.90;45.20;;;;;;5088721;28;20170;-81
2022/07/18 13:09:39;;;;;;;7.13;4.33;;;25.90;45.20;;;;;;5086591;28;20403;-81
2022/07/18 13:12:05;;;;;;;9.70;4.50;;;25.90;45.20;;;;;;5071906;28;20424;-82
2022/07/18 13:14:32;;;;;;;6.70;3.70;;;25.90;45.20;;;;;;5069889;28;20420;-83
2022/07/18 13:16:57;;;;;;;7.77;3.80;;;25.90;45.20;;;;;;5086577;28;20396;-85
2022/07/18 13:19:29;;;;;;;7.10;3.63;;;25.90;45.20;;;;;;5070346;28;20451;-84
2022/07/18 13:21:57;;;;;;;7.17;3.60;;;25.90;45.20;;;;;;5070237;28;20194;-84
2022/07/18 13:24:23;;;;;;;5.20;3.63;;;25.90;45.20;;;;;;5088165;28;20904;-83
2022/07/18 13:26:52;;;;;;;7.17;3.70;;;25.90;45.20;;;;;;5069768;28;20417;-82
2022/07/18 13:29:24;;;;;;;5.50;3.53;;;25.90;45.20;;;;;;5069299;28;20194;-83
2022/07/18 13:31:51;;;;;;;9.03;3.80;;;25.90;45.80;;;;;;5088583;28;20389;-83
2022/07/18 13:34:21;;;;;;;6.10;3.50;;;25.90;45.20;;;;;;5091580;28;20424;-82
2022/07/18 13:36:52;;;;;;;6.40;3.87;;;25.90;45.20;;;;;;5071261;28;20444;-81
2022/07/18 13:39:22;;;;;;;6.43;3.13;;;25.90;45.20;;;;;;5068971;28;20413;-84
2022/07/18 13:41:48;;;;;;;7.80;3.00;;;25.90;45.20;;;;;;5068918;28;20456;-82
2022/07/18 13:44:19;;;;;;;7.17;3.60;;;25.90;45.20;;;;;;5087496;28;20416;-84
2022/07/18 13:46:45;;;;;;;6.00;4.10;;;25.90;45.20;;;;;;5069040;28;20431;-83
2022/07/18 13:49:11;;;;;;;5.90;3.33;;;25.90;45.20;;;;;;5068804;28;20412;-84
2022/07/18 13:51:39;;;;;;;5.07;3.23;;;25.90;45.20;;;;;;5068697;28;20194;-83
2022/07/18 13:54:06;;;;;;;6.27;3.77;;;25.90;45.80;;;;;;5067420;28;20190;-84
2022/07/18 13:56:41;;;;;;;6.10;3.73;;;25.90;45.30;;;;;;5085389;28;20441;-86
2022/07/18 13:59:07;;;;;;;7.40;3.50;;;25.90;45.30;;;;;;5072163;28;20421;-85
2022/07/18 14:01:41;;;;;;;5.60;3.27;;;25.80;45.30;;;;;;5071896;28;20544;-89
2022/07/18 14:04:09;;;;;;;7.33;3.40;;;25.90;45.40;;;;;;5092062;28;20159;-83
2022/07/18 14:06:43;;;;;;;4.30;2.70;;;25.90;45.40;;;;;;5091288;28;20408;-86
2022/07/18 14:09:10;;;;;;;6.40;3.47;;;25.90;46.00;;;;;;5093263;28;20450;-84
2022/07/18 14:11:56;;;;;;;5.67;3.43;;;25.90;45.50;;;;;;5054577;28;20430;-87
2022/07/18 14:14:24;;;;;;;7.27;3.70;;;25.90;45.50;;;;;;5065862;28;20429;-86
2022/07/18 14:17:08;;;;;;;6.17;3.03;;;25.90;45.50;;;;;;5074081;28;20416;-87
2022/07/18 14:19:58;;;;;;;7.67;3.40;;;25.90;45.50;;;;;;5074631;28;20522;-92
2022/07/18 14:22:24;;;;;;;6.97;3.50;;;25.90;45.50;;;;;;5090120;28;20393;-88
2022/07/18 14:24:50;;;;;;;5.50;3.17;;;25.90;45.60;;;;;;5087888;28;20457;-84
2022/07/18 14:30:44;;;;;;;6.07;3.33;;;25.90;46.20;;;;;;5087461;28;20170;-84
2022/07/18 14:33:10;;;;;;;5.97;2.90;;;25.90;45.60;;;;;;5067220;28;20411;-83
2022/07/18 14:35:36;;;;;;;5.50;3.00;;;25.80;45.60;;;;;;5069017;28;20933;-82
2022/07/18 14:38:02;;;;;;;7.10;3.33;;;25.90;45.70;;;;;;5068133;28;20451;-86
2022/07/18 14:40:28;;;;;;;5.60;3.57;;;25.90;45.70;;;;;;5066941;28;20214;-86
2022/07/18 14:42:56;;;;;;;3.50;2.60;;;25.90;45.60;;;;;;5086373;28;20234;-85
2022/07/18 14:45:22;;;;;;;5.50;3.23;;;25.90;45.60;;;;;;5086589;28;20175;-85
2022/07/18 14:47:48;;;;;;;6.03;2.40;;;25.90;45.60;;;;;;5089119;28;20408;-85
2022/07/18 14:50:14;;;;;;;4.63;3.00;;;25.90;45.60;;;;;;5086276;28;20273;-84
2022/07/18 14:52:40;;;;;;;7.30;3.47;;;25.90;45.50;;;;;;5068761;28;20215;-85
2022/07/18 14:55:07;;;;;;;4.10;3.10;;;25.90;45.60;;;;;;5067810;28;20186;-85
2022/07/18 14:57:33;;;;;;;6.10;3.20;;;25.90;45.60;;;;;;5068290;28;20417;-85
2022/07/18 14:59:59;;;;;;;6.83;2.90;;;25.90;45.60;;;;;;5085479;28;20455;-85
2022/07/18 15:02:32;;;;;;;4.13;2.60;;;25.90;45.50;;;;;;5068408;28;20270;-90
2022/07/18 15:04:58;;;;;;;5.83;2.47;;;25.90;45.50;;;;;;5085490;28;20408;-88
2022/07/18 15:07:24;;;;;;;4.37;2.80;;;25.90;45.40;;;;;;5048107;28;20422;-86
2022/07/18 15:09:50;;;;;;;4.50;2.27;;;25.90;45.40;;;;;;5065248;28;20251;-86
2022/07/18 15:12:16;;;;;;;3.17;2.07;;;25.90;45.30;;;;;;5049442;28;20476;-85
2022/07/18 15:14:42;;;;;;;2.90;2.03;;;25.90;45.30;;;;;;5066454;28;20413;-85
2022/07/18 15:17:08;;;;;;;4.93;2.70;;;25.90;45.30;;;;;;5050309;28;20201;-86
2022/07/18 15:19:34;;;;;;;4.03;2.50;;;25.90;45.30;;;;;;5050542;28;20187;-85
2022/07/18 15:22:00;;;;;;;6.70;2.50;;;25.90;45.30;;;;;;5052287;28;20210;-86
2022/07/18 15:24:26;;;;;;;2.50;2.00;;;25.90;45.30;;;;;;5050631;28;20440;-86
2022/07/18 15:26:52;;;;;;;4.03;2.43;;;26.00;45.40;;;;;;5052278;28;20445;-85
2022/07/18 15:29:21;;;;;;;4.97;2.10;;;25.90;45.30;;;;;;5054130;28;20436;-90
2022/07/18 15:31:47;;;;;;;3.70;2.53;;;25.90;45.30;;;;;;5074169;28;20191;-86
2022/07/18 15:34:13;;;;;;;3.97;2.00;;;25.90;45.30;;;;;;5054806;28;20817;-85
2022/07/18 15:36:39;;;;;;;4.37;3.13;;;25.90;45.30;;;;;;5071997;28;20186;-85
2022/07/18 15:39:04;;;;;;;3.10;2.20;;;25.90;45.40;;;;;;5073404;28;20167;-86
2022/07/18 15:41:31;;;;;;;2.90;2.00;;;25.90;45.40;;;;;;5056668;28;20207;-85
2022/07/18 15:43:57;;;;;;;3.60;2.20;;;25.90;45.40;;;;;;5038317;28;20195;-87
2022/07/18 15:46:23;;;;;;;3.63;2.37;;;25.90;45.40;;;;;;5055318;28;20441;-85
2022/07/18 15:48:50;;;;;;;2.33;2.03;;;25.90;45.40;;;;;;5054607;28;20421;-88
2022/07/18 15:51:16;;;;;;;5.40;2.27;;;25.90;45.40;;;;;;5054088;28;20443;-85
2022/07/18 15:53:43;;;;;;;3.30;1.97;;;26.00;45.50;;;;;;5054558;28;20455;-85
2022/07/18 15:56:09;;;;;;;2.87;2.20;;;25.90;45.40;;;;;;5072342;28;20414;-86
2022/07/18 15:58:38;;;;;;;2.50;1.90;;;25.90;45.50;;;;;;5054872;28;20454;-88
2022/07/18 16:01:07;;;;;;;2.90;2.23;;;25.90;45.50;;;;;;5054896;28;20457;-85
2022/07/18 16:03:33;;;;;;;3.83;2.10;;;26.00;45.50;;;;;;5091418;28;20460;-84
2022/07/18 16:05:59;;;;;;;2.63;1.90;;;25.90;45.50;;;;;;5072390;28;20764;-91
2022/07/18 16:08:27;;;;;;;4.90;2.67;;;26.00;45.50;;;;;;5089102;28;20243;-85
2022/07/18 16:11:23;;;;;;;3.00;2.27;;;26.00;45.60;;;;;;5090986;28;20200;-86
2022/07/18 16:13:49;;;;;;;3.00;2.30;;;26.00;45.60;;;;;;5069533;28;20520;-85
2022/07/18 16:16:14;;;;;;;2.80;2.00;;;26.00;45.60;;;;;;5071878;28;20421;-86
2022/07/18 16:18:40;;;;;;;2.57;1.87;;;26.00;45.60;;;;;;5071701;28;20186;-88
2022/07/18 16:21:09;;;;;;;3.03;1.93;;;26.00;45.70;;;;;;5073493;28;20262;-87
2022/07/18 16:23:35;;;;;;;4.97;2.03;;;26.00;45.60;;;;;;5073565;28;20243;-85
2022/07/18 16:26:04;;;;;;;2.97;2.27;;;26.00;45.60;;;;;;5074855;28;20420;-87
2022/07/18 16:28:30;;;;;;;2.37;1.87;;;26.00;45.60;;;;;;5074701;28;20832;-85
2022/07/18 16:37:45;;;;;;;2.17;1.83;;;26.00;45.70;;;;;;5010946;28;21248;-85
2022/07/18 16:40:12;;;;;;;5.00;2.30;;;25.90;45.70;;;;;;4995176;28;20480;-84
2022/07/18 16:42:39;;;;;;;3.33;1.90;;;25.90;45.70;;;;;;4993182;28;20416;-86
2022/07/18 16:45:06;;;;;;;2.97;1.90;;;25.90;45.70;;;;;;5006514;28;20417;-84
2022/07/18 16:47:39;;;;;;;1.83;1.57;;;25.90;45.70;;;;;;5004944;28;20409;-84
2022/07/18 16:50:11;;;;;;;3.77;1.90;;;26.00;45.80;;;;;;4989995;28;20428;-84
2022/07/18 16:52:41;;;;;;;2.33;1.87;;;26.00;45.80;;;;;;4988431;28;21007;-85
2022/07/18 16:55:19;;;;;;;2.20;1.47;;;26.00;45.80;;;;;;5004598;28;20401;-84
2022/07/18 16:57:47;;;;;;;3.07;2.17;;;25.90;45.70;;;;;;4991720;28;20447;-84
2022/07/18 17:00:19;;;;;;;1.93;1.67;;;26.00;45.80;;;;;;4989846;28;20460;-83
2022/07/18 17:02:48;;;;;;;2.90;1.87;;;26.00;45.70;;;;;;4991914;28;20944;-82
2022/07/18 17:05:14;;;;;;;2.23;1.60;;;26.00;45.70;;;;;;4992045;28;20432;-82
2022/07/18 17:07:43;;;;;;;3.10;1.67;;;26.00;45.70;;;;;;5008225;28;20421;-82
2022/07/18 17:10:10;;;;;;;2.90;2.03;;;26.00;45.70;;;;;;5010245;28;20421;-82
2022/07/18 17:12:40;;;;;;;3.37;2.00;;;26.00;45.70;;;;;;5088362;28;20444;-82
2022/07/18 17:15:12;;;;;;;2.60;1.90;;;26.00;45.70;;;;;;5088026;28;20398;-81
2022/07/18 17:17:38;;;;;;;3.00;1.87;;;26.00;45.60;;;;;;5070514;28;20428;-82
2022/07/18 17:20:10;;;;;;;2.70;1.30;;;26.00;45.60;;;;;;5087905;28;20505;-82
2022/07/18 17:22:37;;;;;;;1.70;1.60;;;26.00;45.60;;;;;;5072586;28;20511;-82
2022/07/18 17:25:04;;;;;;;1.40;1.30;;;26.00;45.60;;;;;;5071693;28;20404;-82
2022/07/18 17:27:31;;;;;;;3.70;1.90;;;26.00;45.60;;;;;;5071838;28;20409;-82
2022/07/18 17:29:57;;;;;;;2.63;1.33;;;26.00;45.60;;;;;;5071780;28;20416;-82
2022/07/18 17:32:27;;;;;;;3.00;2.07;;;26.00;45.60;;;;;;5089384;28;20827;-82
2022/07/18 17:34:55;;;;;;;2.50;1.83;;;26.00;45.60;;;;;;5071395;28;20515;-83
2022/07/18 17:37:21;;;;;;;2.10;1.80;;;26.00;45.60;;;;;;5073460;28;20401;-82
2022/07/18 17:39:51;;;;;;;2.97;1.97;;;26.00;46.30;;;;;;5071735;28;20417;-82
2022/07/18 17:42:20;;;;;;;2.93;2.10;;;26.00;45.70;;;;;;5071546;28;20443;-83
2022/07/18 17:44:47;;;;;;;2.27;1.80;;;26.00;45.70;;;;;;5071273;28;20417;-81
2022/07/18 17:47:15;;;;;;;3.93;2.90;;;26.00;45.70;;;;;;5071296;28;20423;-80
2022/07/18 17:49:41;;;;;;;2.37;1.97;;;26.00;45.70;;;;;;5089269;28;20551;-80
2022/07/18 17:52:10;;;;;;;4.00;1.80;;;26.10;45.80;;;;;;5089696;28;20409;-80
2022/07/18 17:54:37;;;;;;;3.23;1.80;;;26.00;45.70;;;;;;5089245;28;20409;-80
2022/07/18 17:57:03;;;;;;;2.90;1.60;;;26.00;45.70;;;;;;5070093;28;20408;-82
2022/07/18 17:59:35;;;;;;;2.43;1.87;;;26.00;45.70;;;;;;5087958;28;20423;-83
2022/07/18 18:02:01;;;;;;;4.00;1.67;;;26.10;45.80;;;;;;5068485;28;20782;-83
2022/07/18 18:04:27;;;;;;;22.20;3.90;;;26.10;45.80;;;;;;5085992;28;20397;-82
2022/07/18 18:06:52;;;;;;;9.87;3.30;;;26.10;45.90;;;;;;5068644;28;20918;-83
2022/07/18 18:09:18;;;;;;;11.43;3.43;;;26.10;45.90;;;;;;5086514;28;20230;-83
2022/07/18 18:11:47;;;;;;;9.73;2.40;;;26.10;45.90;;;;;;5068467;28;20193;-84
2022/07/18 18:14:13;;;;;;;6.13;2.50;;;26.10;45.90;;;;;;5085740;28;20438;-84
2022/07/18 18:16:43;;;;;;;6.70;2.50;;;26.10;45.90;;;;;;5068055;28;20957;-84
2022/07/18 18:19:11;;;;;;;5.53;2.30;;;26.10;45.90;;;;;;5068635;28;20182;-83
2022/07/18 18:21:36;;;;;;;6.23;2.47;;;26.10;45.90;;;;;;5069539;28;20467;-83
2022/07/18 18:24:03;;;;;;;6.50;1.90;;;26.10;45.90;;;;;;5069281;28;20866;-83
2022/07/18 18:29:53;;;;;;;3.10;2.20;;;26.10;45.90;;;;;;5085653;28;20404;-83
2022/07/18 18:32:19;;;;;;;7.60;2.10;;;26.10;45.90;;;;;;5070929;28;20433;-83
2022/07/18 18:34:45;;;;;;;4.67;1.63;;;26.10;45.90;;;;;;5087166;28;20413;-83
2022/07/18 18:37:13;;;;;;;2.73;1.60;;;26.10;45.90;;;;;;5086315;28;20417;-83
2022/07/18 18:39:40;;;;;;;7.63;2.30;;;26.10;45.80;;;;;;5085915;28;20512;-84
2022/07/18 18:42:09;;;;;;;9.07;2.53;;;26.10;45.80;;;;;;5067702;28;20412;-84
2022/07/18 18:44:36;;;;;;;4.70;1.80;;;26.10;45.80;;;;;;5067932;28;20413;-83
2022/07/18 18:47:01;;;;;;;3.47;1.63;;;26.10;45.80;;;;;;5067256;28;20413;-83
2022/07/18 18:49:32;;;;;;;6.80;2.10;;;26.10;45.80;;;;;;5068569;28;20413;-83
2022/07/18 18:51:58;;;;;;;3.10;1.83;;;26.10;45.70;;;;;;5086343;28;20170;-83
2022/07/18 18:54:26;;;;;;;4.90;2.03;;;26.10;45.70;;;;;;5068009;28;20448;-83
2022/07/18 18:56:52;;;;;;;2.80;1.70;;;26.10;45.80;;;;;;5067224;28;20429;-83
2022/07/18 18:59:21;;;;;;;3.57;1.90;;;26.10;45.70;;;;;;5067618;28;20454;-83
2022/07/18 19:01:47;;;;;;;5.03;1.77;;;26.10;45.70;;;;;;5069988;28;20691;-83
2022/07/18 19:04:13;;;;;;;4.70;1.70;;;26.10;45.70;;;;;;5089449;28;20409;-83
2022/07/18 19:06:39;;;;;;;2.30;2.10;;;26.10;45.70;;;;;;5071431;28;20409;-83
2022/07/18 19:09:06;;;;;;;3.20;1.47;;;26.10;45.70;;;;;;5072603;28;20419;-83
2022/07/18 19:11:34;;;;;;;3.60;1.90;;;26.10;46.20;;;;;;5091175;28;20435;-83
2022/07/18 19:14:01;;;;;;;3.30;1.70;;;26.10;45.70;;;;;;5073106;28;20420;-83
2022/07/18 19:16:27;;;;;;;4.20;2.07;;;26.10;45.70;;;;;;5090279;28;20428;-83
2022/07/18 19:18:53;;;;;;;2.23;1.70;;;26.10;45.70;;;;;;5090502;28;20424;-82
2022/07/18 19:21:20;;;;;;;2.60;1.90;;;26.10;45.70;;;;;;5071798;28;21011;-83
2022/07/18 19:23:46;;;;;;;1.97;1.67;;;26.10;45.70;;;;;;5089453;28;20432;-84
2022/07/18 19:26:12;;;;;;;2.23;1.60;;;26.10;45.70;;;;;;5090248;28;20408;-85
2022/07/18 19:28:41;;;;;;;2.63;1.87;;;26.10;45.70;;;;;;5072056;28;20182;-83
2022/07/18 19:31:07;;;;;;;3.27;1.90;;;26.10;45.60;;;;;;5071870;28;20421;-84
2022/07/18 19:33:34;;;;;;;2.77;2.00;;;26.10;45.60;;;;;;5071559;28;20559;-83
2022/07/18 19:36:01;;;;;;;3.30;1.83;;;26.00;45.60;;;;;;5089519;28;20190;-83
2022/07/18 19:38:27;;;;;;;5.27;2.13;;;26.00;45.50;;;;;;5089895;28;20442;-83
2022/07/18 19:40:53;;;;;;;3.93;2.10;;;26.00;45.60;;;;;;5071300;28;20464;-83
2022/07/18 19:43:19;;;;;;;3.03;1.70;;;26.00;45.50;;;;;;5071119;28;20451;-84
2022/07/18 19:45:45;;;;;;;2.40;1.73;;;26.00;45.50;;;;;;5071597;28;20209;-84
2022/07/18 19:48:12;;;;;;;2.93;1.83;;;26.00;45.50;;;;;;5055448;28;20196;-83
2022/07/18 19:50:38;;;;;;;2.80;2.10;;;26.00;46.10;;;;;;5088322;28;20930;-83
2022/07/18 19:53:04;;;;;;;2.07;1.77;;;26.00;45.50;;;;;;5088968;28;20413;-83
2022/07/18 19:55:30;;;;;;;6.00;2.00;;;26.00;45.50;;;;;;5070503;28;20431;-82
2022/07/18 19:57:57;;;;;;;2.77;1.80;;;26.10;45.60;;;;;;5070208;28;20420;-83
2022/07/18 20:00:23;;;;;;;2.80;2.20;;;26.00;45.50;;;;;;5069984;28;20463;-83
2022/07/18 20:02:50;;;;;;;2.70;1.70;;;26.10;45.60;;;;;;5088253;28;20405;-84
2022/07/18 20:08:38;;;;;;;3.23;1.93;;;26.00;45.50;;;;;;5088392;28;20380;-84
2022/07/18 20:11:04;;;;;;;5.47;2.27;;;26.00;45.60;;;;;;5070451;28;20416;-84
2022/07/18 20:13:30;;;;;;;2.80;1.77;;;26.00;45.60;;;;;;5369533;22;20185;-80
2022/07/18 20:15:56;;;;;;;2.87;1.90;;;26.00;45.60;;;;;;5086936;28;20501;-80
2022/07/18 20:18:21;;;;;;;3.17;2.10;;;26.10;45.70;;;;;;5079559;28;20246;-80
2022/07/18 20:20:47;;;;;;;2.40;1.80;;;26.00;45.60;;;;;;5082545;28;20226;-79
2022/07/18 20:23:13;;;;;;;3.43;1.40;;;26.10;45.60;;;;;;5066779;28;20205;-78
2022/07/18 20:25:38;;;;;;;5.73;2.33;;;26.10;45.60;;;;;;5063906;28;20213;-78
2022/07/18 20:28:04;;;;;;;3.83;1.90;;;26.00;45.60;;;;;;5083817;28;20174;-80
2022/07/18 20:30:35;;;;;;;2.03;1.80;;;26.00;45.50;;;;;;5065827;28;20190;-77
2022/07/18 20:33:02;;;;;;;3.27;1.90;;;26.00;45.60;;;;;;5081289;28;20179;-80
2022/07/18 20:35:28;;;;;;;3.17;2.03;;;26.00;45.60;;;;;;5081405;28;20914;-80
2022/07/18 20:41:17;;;;;;;3.20;2.03;;;26.00;45.60;;;;;;5076981;28;20271;-79
2022/07/18 20:43:42;;;;;;;2.60;2.00;;;26.00;45.60;;;;;;5080308;28;20420;-79
2022/07/18 20:46:11;;;;;;;4.00;2.20;;;26.00;45.60;;;;;;5085229;28;20420;-79
2022/07/18 20:48:37;;;;;;;2.07;1.70;;;26.00;45.60;;;;;;5084880;28;20191;-79
2022/07/18 20:51:03;;;;;;;2.50;1.63;;;26.00;45.60;;;;;;5084726;28;20503;-79
2022/07/18 20:53:29;;;;;;;2.33;1.60;;;26.00;45.60;;;;;;5070707;28;20184;-79
2022/07/18 20:55:54;;;;;;;3.10;1.50;;;26.00;46.20;;;;;;5075814;28;20431;-79
2022/07/18 20:58:20;;;;;;;1.67;1.40;;;26.00;45.60;;;;;;5083811;28;20252;-80
2022/07/18 21:00:46;;;;;;;3.10;1.50;;;26.00;45.60;;;;;;5064176;28;20201;-79
2022/07/18 21:03:12;;;;;;;3.70;1.97;;;26.00;45.60;;;;;;5084040;28;20250;-79
2022/07/18 21:05:38;;;;;;;6.70;2.10;;;26.00;45.60;;;;;;5065435;28;20189;-80
2022/07/18 21:08:03;;;;;;;2.50;1.73;;;26.00;45.60;;;;;;5058260;28;20416;-80
2022/07/18 21:10:29;;;;;;;1.83;1.43;;;26.00;45.60;;;;;;5065174;28;20186;-79
2022/07/18 21:12:55;;;;;;;1.97;1.60;;;26.00;45.60;;;;;;5082012;28;20480;-79
2022/07/18 21:15:21;;;;;;;1.93;1.67;;;26.00;45.60;;;;;;5083731;28;20221;-79
2022/07/18 21:17:50;;;;;;;2.77;1.63;;;26.00;45.60;;;;;;5064581;28;20261;-79
2022/07/18 21:20:20;;;;;;;2.40;1.70;;;26.00;45.60;;;;;;5065580;28;20210;-79
2022/07/18 21:22:46;;;;;;;2.30;1.70;;;26.00;45.60;;;;;;5064657;28;20424;-79
2022/07/18 21:25:13;;;;;;;3.57;1.90;;;26.00;45.60;;;;;;5084026;28;20419;-79
2022/07/18 21:28:24;;;;;;;2.03;1.70;;;26.00;45.60;;;;;;5064984;28;20417;-79
2022/07/18 21:30:49;;;;;;;3.93;1.53;;;26.00;45.60;;;;;;5079430;28;21032;-79
2022/07/18 21:33:15;;;;;;;2.47;1.70;;;26.00;45.70;;;;;;5084267;28;20440;-79
2022/07/18 21:35:41;;;;;;;2.50;1.70;;;26.00;45.70;;;;;;5065330;28;20194;-79
2022/07/18 21:38:07;;;;;;;2.40;1.60;;;26.00;45.70;;;;;;5065656;28;20191;-78
2022/07/18 21:40:33;;;;;;;2.70;1.83;;;26.00;45.70;;;;;;5063693;28;20213;-79
2022/07/18 21:42:59;;;;;;;3.30;1.73;;;26.00;45.70;;;;;;5058321;28;20424;-79
2022/07/18 21:45:24;;;;;;;2.20;2.00;;;26.00;45.70;;;;;;5066882;28;20448;-79
2022/07/18 21:47:50;;;;;;;3.30;1.60;;;26.00;45.70;;;;;;5070638;28;20195;-79
2022/07/18 21:53:38;;;;;;;3.67;2.67;;;26.00;45.70;;;;;;5083622;28;20201;-79
2022/07/18 21:56:04;;;;;;;2.47;1.83;;;26.00;45.70;;;;;;5057334;28;20938;-79
2022/07/18 21:58:30;;;;;;;2.53;1.93;;;26.00;45.70;;;;;;5085256;28;20621;-79
2022/07/18 22:04:18;;;;;;;1.77;1.50;;;26.00;45.70;;;;;;5078500;28;20181;-78
2022/07/18 22:06:43;;;;;;;2.13;1.80;;;26.00;45.80;;;;;;5052394;28;20484;-78
2022/07/18 22:09:09;;;;;;;2.53;1.87;;;26.00;45.80;;;;;;5078861;28;20199;-79
2022/07/18 22:11:36;;;;;;;3.27;1.80;;;26.00;45.80;;;;;;5084700;28;20194;-79
2022/07/18 22:14:04;;;;;;;2.40;1.67;;;26.00;45.70;;;;;;5047573;28;20218;-79
2022/07/18 22:16:30;;;;;;;2.37;1.37;;;26.00;45.70;;;;;;5058158;28;20421;-79
2022/07/18 22:22:18;;;;;;;2.07;1.67;;;26.00;45.70;;;;;;5082872;28;20408;-79
2022/07/18 22:24:44;;;;;;;2.50;1.70;;;26.00;45.80;;;;;;5062833;28;20429;-79
2022/07/18 22:27:30;;;;;;;2.10;1.80;;;26.00;45.80;;;;;;5051640;28;20186;-79
2022/07/18 22:29:56;;;;;;;2.03;1.60;;;26.00;45.80;;;;;;5061510;28;20182;-79
2022/07/18 22:32:22;;;;;;;2.00;1.60;;;26.00;45.80;;;;;;5077186;28;20417;-79
2022/07/18 22:34:48;;;;;;;3.67;1.50;;;26.00;46.30;;;;;;5063575;28;20413;-79
2022/07/18 22:37:14;;;;;;;1.90;1.67;;;26.00;45.80;;;;;;5083813;28;20178;-79
2022/07/18 22:39:41;;;;;;;1.90;1.60;;;26.00;45.80;;;;;;5064641;28;20189;-79
2022/07/18 22:42:06;;;;;;;1.93;1.60;;;26.00;45.80;;;;;;5084155;28;20448;-79
2022/07/18 22:44:32;;;;;;;2.20;1.60;;;26.00;45.80;;;;;;5085341;28;21027;-79
2022/07/18 22:47:00;;;;;;;2.53;1.83;;;26.00;45.80;;;;;;5067065;28;20182;-79
2022/07/18 22:49:27;;;;;;;2.50;2.00;;;26.00;45.80;;;;;;5064886;28;20527;-79
2022/07/18 22:51:53;;;;;;;1.73;1.30;;;26.00;45.80;;;;;;5083749;28;20427;-79
2022/07/18 22:54:20;;;;;;;1.97;1.50;;;26.00;45.80;;;;;;5065316;28;20848;-79
2022/07/18 22:56:47;;;;;;;2.13;1.80;;;26.00;45.80;;;;;;5084574;28;20452;-78
2022/07/18 22:59:13;;;;;;;1.97;1.60;;;26.10;45.80;;;;;;5082372;28;20429;-79
2022/07/18 23:01:39;;;;;;;2.33;1.60;;;26.10;45.80;;;;;;5082806;28;20452;-78
2022/07/18 23:04:05;;;;;;;2.57;1.80;;;26.00;45.80;;;;;;5083954;28;20423;-79
2022/07/18 23:06:30;;;;;;;2.03;1.67;;;26.00;45.80;;;;;;5063461;28;20182;-79
2022/07/18 23:08:56;;;;;;;2.43;1.90;;;26.10;45.90;;;;;;5082580;28;20182;-79
2022/07/18 23:11:22;;;;;;;2.40;1.90;;;26.00;45.80;;;;;;5065284;28;20341;-78
2022/07/18 23:13:48;;;;;;;3.10;1.77;;;26.10;45.90;;;;;;5084575;28;20688;-79
2022/07/18 23:16:14;;;;;;;1.73;1.30;;;26.10;45.90;;;;;;5067955;28;20194;-79
2022/07/18 23:18:40;;;;;;;2.47;1.80;;;26.00;45.80;;;;;;5090679;28;20193;-79
2022/07/18 23:21:06;;;;;;;4.30;3.00;;;26.10;45.90;;;;;;5088414;28;20452;-80
2022/07/18 23:23:32;;;;;;;1.60;1.50;;;26.10;45.90;;;;;;5069054;28;20432;-80
2022/07/18 23:25:58;;;;;;;2.50;1.60;;;26.10;45.90;;;;;;5085147;28;20182;-80
2022/07/18 23:28:26;;;;;;;1.80;1.60;;;26.00;45.80;;;;;;5064548;28;20459;-79
2022/07/18 23:30:52;;;;;;;2.17;1.60;;;26.00;45.80;;;;;;5087096;28;20193;-79
2022/07/18 23:33:18;;;;;;;2.27;1.70;;;26.10;45.90;;;;;;5083016;28;20773;-79
2022/07/18 23:35:43;;;;;;;3.20;1.70;;;26.00;45.90;;;;;;5084477;28;20662;-79
2022/07/18 23:38:09;;;;;;;1.93;1.20;;;26.00;45.80;;;;;;5081799;28;20697;-79
2022/07/18 23:40:35;;;;;;;3.00;2.03;;;26.00;45.80;;;;;;5066570;28;20214;-79
2022/07/18 23:43:03;;;;;;;2.43;1.87;;;26.10;45.90;;;;;;5060520;28;20187;-79
2022/07/18 23:45:29;;;;;;;1.90;1.60;;;26.00;45.80;;;;;;5061661;28;20218;-79